sensor_id;sensor_type;location;lat;lon;timestamp;P1;durP1;ratioP1;P2;durP2;ratioP2
24713;SDS011;12820;51.580;5.010;2024-01-16T00:03:31;12.50;;;6.15;;
24713;SDS011;12820;51.580;5.010;2024-01-16T00:08:34;12.55;;;5.55;;
24713;SDS011;12820;51.580;5.010;2024-01-16T00:13:36;10.27;;;5.10;;
24713;SDS011;12820;51.580;5.010;2024-01-16T00:18:38;7.82;;;5.50;;
24713;SDS011;12820;51.580;5.010;2024-01-16T00:23:40;11.40;;;5.75;;
24713;SDS011;12820;51.580;5.010;2024-01-16T00:28:43;12.45;;;5.95;;
24713;SDS011;12820;51.580;5.010;2024-01-16T00:33:45;8.95;;;5.25;;
24713;SDS011;12820;51.580;5.010;2024-01-16T00:38:47;7.43;;;5.63;;
24713;SDS011;12820;51.580;5.010;2024-01-16T00:43:50;18.42;;;5.88;;
24713;SDS011;12820;51.580;5.010;2024-01-16T00:48:52;13.38;;;6.10;;
24713;SDS011;12820;51.580;5.010;2024-01-16T00:53:54;11.48;;;5.22;;
24713;SDS011;12820;51.580;5.010;2024-01-16T00:58:57;9.05;;;6.15;;
24713;SDS011;12820;51.580;5.010;2024-01-16T01:03:59;11.13;;;5.18;;
24713;SDS011;12820;51.580;5.010;2024-01-16T01:09:01;9.90;;;5.30;;
24713;SDS011;12820;51.580;5.010;2024-01-16T01:14:04;11.45;;;5.85;;
24713;SDS011;12820;51.580;5.010;2024-01-16T01:19:07;13.80;;;5.65;;
24713;SDS011;12820;51.580;5.010;2024-01-16T01:24:09;9.73;;;5.10;;
24713;SDS011;12820;51.580;5.010;2024-01-16T01:29:12;15.13;;;5.10;;
24713;SDS011;12820;51.580;5.010;2024-01-16T01:34:15;9.73;;;4.90;;
24713;SDS011;12820;51.580;5.010;2024-01-16T01:39:17;7.80;;;5.05;;
24713;SDS011;12820;51.580;5.010;2024-01-16T01:44:19;7.85;;;5.35;;
24713;SDS011;12820;51.580;5.010;2024-01-16T01:49:23;7.20;;;5.28;;
24713;SDS011;12820;51.580;5.010;2024-01-16T01:54:26;11.38;;;6.00;;
24713;SDS011;12820;51.580;5.010;2024-01-16T01:59:29;9.82;;;6.30;;
24713;SDS011;12820;51.580;5.010;2024-01-16T02:04:33;12.80;;;6.97;;
24713;SDS011;12820;51.580;5.010;2024-01-16T02:09:36;13.48;;;6.03;;
24713;SDS011;12820;51.580;5.010;2024-01-16T02:14:39;9.13;;;5.63;;
24713;SDS011;12820;51.580;5.010;2024-01-16T02:19:42;10.55;;;5.35;;
24713;SDS011;12820;51.580;5.010;2024-01-16T02:24:44;10.18;;;4.95;;
24713;SDS011;12820;51.580;5.010;2024-01-16T02:29:46;12.25;;;5.43;;
24713;SDS011;12820;51.580;5.010;2024-01-16T02:34:49;14.18;;;5.43;;
24713;SDS011;12820;51.580;5.010;2024-01-16T02:39:52;13.82;;;5.57;;
24713;SDS011;12820;51.580;5.010;2024-01-16T02:44:54;13.48;;;5.63;;
24713;SDS011;12820;51.580;5.010;2024-01-16T02:49:56;15.13;;;6.22;;
24713;SDS011;12820;51.580;5.010;2024-01-16T02:54:59;15.20;;;5.78;;
24713;SDS011;12820;51.580;5.010;2024-01-16T03:00:01;15.80;;;5.88;;
24713;SDS011;12820;51.580;5.010;2024-01-16T03:05:03;13.85;;;6.53;;
24713;SDS011;12820;51.580;5.010;2024-01-16T03:10:08;15.35;;;6.15;;
24713;SDS011;12820;51.580;5.010;2024-01-16T03:15:11;16.02;;;6.65;;
24713;SDS011;12820;51.580;5.010;2024-01-16T03:20:13;12.63;;;6.22;;
24713;SDS011;12820;51.580;5.010;2024-01-16T03:25:16;13.95;;;6.35;;
24713;SDS011;12820;51.580;5.010;2024-01-16T03:30:19;14.10;;;6.22;;
24713;SDS011;12820;51.580;5.010;2024-01-16T03:35:21;16.67;;;6.85;;
24713;SDS011;12820;51.580;5.010;2024-01-16T03:40:23;16.80;;;6.70;;
24713;SDS011;12820;51.580;5.010;2024-01-16T03:45:26;16.33;;;7.57;;
24713;SDS011;12820;51.580;5.010;2024-01-16T03:50:28;18.15;;;7.28;;
24713;SDS011;12820;51.580;5.010;2024-01-16T03:55:30;23.63;;;8.27;;
24713;SDS011;12820;51.580;5.010;2024-01-16T04:00:33;24.60;;;8.52;;
24713;SDS011;12820;51.580;5.010;2024-01-16T04:05:36;15.50;;;7.95;;
24713;SDS011;12820;51.580;5.010;2024-01-16T04:10:39;22.13;;;9.13;;
24713;SDS011;12820;51.580;5.010;2024-01-16T04:15:41;20.42;;;9.30;;
24713;SDS011;12820;51.580;5.010;2024-01-16T04:20:43;17.58;;;9.02;;
24713;SDS011;12820;51.580;5.010;2024-01-16T04:25:45;22.20;;;9.40;;
24713;SDS011;12820;51.580;5.010;2024-01-16T04:30:47;30.75;;;11.43;;
24713;SDS011;12820;51.580;5.010;2024-01-16T04:35:50;24.33;;;11.02;;
24713;SDS011;12820;51.580;5.010;2024-01-16T04:40:52;28.77;;;11.35;;
24713;SDS011;12820;51.580;5.010;2024-01-16T04:45:54;31.95;;;12.75;;
24713;SDS011;12820;51.580;5.010;2024-01-16T04:50:57;32.45;;;12.15;;
24713;SDS011;12820;51.580;5.010;2024-01-16T04:55:59;19.73;;;11.63;;
24713;SDS011;12820;51.580;5.010;2024-01-16T05:01:01;28.58;;;11.88;;
24713;SDS011;12820;51.580;5.010;2024-01-16T05:06:04;24.58;;;11.80;;
24713;SDS011;12820;51.580;5.010;2024-01-16T05:11:07;25.10;;;13.40;;
24713;SDS011;12820;51.580;5.010;2024-01-16T05:16:10;27.27;;;12.68;;
24713;SDS011;12820;51.580;5.010;2024-01-16T05:21:12;21.60;;;11.75;;
24713;SDS011;12820;51.580;5.010;2024-01-16T05:26:14;26.63;;;12.48;;
24713;SDS011;12820;51.580;5.010;2024-01-16T05:31:16;22.50;;;12.65;;
24713;SDS011;12820;51.580;5.010;2024-01-16T05:36:19;26.77;;;12.15;;
24713;SDS011;12820;51.580;5.010;2024-01-16T05:41:21;22.00;;;12.48;;
24713;SDS011;12820;51.580;5.010;2024-01-16T05:46:23;20.63;;;11.63;;
24713;SDS011;12820;51.580;5.010;2024-01-16T05:51:28;24.05;;;11.80;;
24713;SDS011;12820;51.580;5.010;2024-01-16T05:56:32;22.92;;;11.88;;
24713;SDS011;12820;51.580;5.010;2024-01-16T06:01:36;24.92;;;12.43;;
24713;SDS011;12820;51.580;5.010;2024-01-16T06:06:39;22.98;;;11.95;;
24713;SDS011;12820;51.580;5.010;2024-01-16T06:11:45;19.48;;;11.52;;
24713;SDS011;12820;51.580;5.010;2024-01-16T06:16:48;19.05;;;12.02;;
24713;SDS011;12820;51.580;5.010;2024-01-16T06:21:50;24.83;;;11.68;;
24713;SDS011;12820;51.580;5.010;2024-01-16T06:26:53;17.73;;;11.35;;
24713;SDS011;12820;51.580;5.010;2024-01-16T06:31:55;19.60;;;11.93;;
24713;SDS011;12820;51.580;5.010;2024-01-16T06:36:57;20.45;;;11.85;;
24713;SDS011;12820;51.580;5.010;2024-01-16T06:41:59;21.20;;;11.43;;
24713;SDS011;12820;51.580;5.010;2024-01-16T06:47:02;22.10;;;11.35;;
24713;SDS011;12820;51.580;5.010;2024-01-16T06:52:04;15.60;;;10.68;;
24713;SDS011;12820;51.580;5.010;2024-01-16T06:57:07;25.02;;;11.02;;
24713;SDS011;12820;51.580;5.010;2024-01-16T07:02:09;30.15;;;11.65;;
24713;SDS011;12820;51.580;5.010;2024-01-16T07:07:11;17.90;;;10.77;;
24713;SDS011;12820;51.580;5.010;2024-01-16T07:12:14;20.60;;;10.70;;
24713;SDS011;12820;51.580;5.010;2024-01-16T07:17:16;21.65;;;10.80;;
24713;SDS011;12820;51.580;5.010;2024-01-16T07:22:18;21.55;;;10.52;;
24713;SDS011;12820;51.580;5.010;2024-01-16T07:27:20;19.35;;;10.65;;
24713;SDS011;12820;51.580;5.010;2024-01-16T07:32:22;19.25;;;10.70;;
24713;SDS011;12820;51.580;5.010;2024-01-16T07:37:24;19.33;;;11.02;;
24713;SDS011;12820;51.580;5.010;2024-01-16T07:42:27;13.68;;;10.35;;
24713;SDS011;12820;51.580;5.010;2024-01-16T07:47:35;17.73;;;9.88;;
24713;SDS011;12820;51.580;5.010;2024-01-16T07:52:38;14.20;;;9.90;;
24713;SDS011;12820;51.580;5.010;2024-01-16T07:57:41;16.70;;;10.25;;
24713;SDS011;12820;51.580;5.010;2024-01-16T08:02:43;18.38;;;10.60;;
24713;SDS011;12820;51.580;5.010;2024-01-16T08:07:46;19.33;;;10.10;;
24713;SDS011;12820;51.580;5.010;2024-01-16T08:12:48;17.27;;;11.23;;
24713;SDS011;12820;51.580;5.010;2024-01-16T08:17:50;15.23;;;10.23;;
24713;SDS011;12820;51.580;5.010;2024-01-16T08:22:52;19.05;;;9.88;;
24713;SDS011;12820;51.580;5.010;2024-01-16T08:27:55;14.05;;;10.43;;
24713;SDS011;12820;51.580;5.010;2024-01-16T08:32:57;17.13;;;9.35;;
24713;SDS011;12820;51.580;5.010;2024-01-16T08:38:09;17.80;;;10.38;;
24713;SDS011;12820;51.580;5.010;2024-01-16T08:43:12;22.30;;;10.05;;
24713;SDS011;12820;51.580;5.010;2024-01-16T08:48:14;19.17;;;10.10;;
24713;SDS011;12820;51.580;5.010;2024-01-16T08:53:17;13.80;;;9.90;;
24713;SDS011;12820;51.580;5.010;2024-01-16T08:58:19;18.83;;;9.60;;
24713;SDS011;12820;51.580;5.010;2024-01-16T09:03:21;13.93;;;9.90;;
24713;SDS011;12820;51.580;5.010;2024-01-16T09:08:24;21.08;;;9.32;;
24713;SDS011;12820;51.580;5.010;2024-01-16T09:13:28;17.60;;;9.50;;
24713;SDS011;12820;51.580;5.010;2024-01-16T09:18:31;14.02;;;8.82;;
24713;SDS011;12820;51.580;5.010;2024-01-16T09:23:33;18.35;;;9.82;;
24713;SDS011;12820;51.580;5.010;2024-01-16T09:28:35;21.38;;;9.93;;
24713;SDS011;12820;51.580;5.010;2024-01-16T09:33:37;14.48;;;9.35;;
24713;SDS011;12820;51.580;5.010;2024-01-16T09:38:41;14.32;;;8.63;;
24713;SDS011;12820;51.580;5.010;2024-01-16T09:43:44;19.25;;;9.55;;
24713;SDS011;12820;51.580;5.010;2024-01-16T09:48:48;15.43;;;9.45;;
24713;SDS011;12820;51.580;5.010;2024-01-16T09:53:51;17.58;;;10.15;;
24713;SDS011;12820;51.580;5.010;2024-01-16T09:58:55;22.05;;;9.73;;
24713;SDS011;12820;51.580;5.010;2024-01-16T10:04:04;20.55;;;10.80;;
24713;SDS011;12820;51.580;5.010;2024-01-16T10:09:06;14.68;;;10.10;;
24713;SDS011;12820;51.580;5.010;2024-01-16T10:14:09;14.25;;;10.00;;
24713;SDS011;12820;51.580;5.010;2024-01-16T10:19:11;14.88;;;10.25;;
24713;SDS011;12820;51.580;5.010;2024-01-16T10:24:14;17.35;;;10.35;;
24713;SDS011;12820;51.580;5.010;2024-01-16T10:29:16;17.73;;;10.63;;
24713;SDS011;12820;51.580;5.010;2024-01-16T10:34:19;18.98;;;10.48;;
24713;SDS011;12820;51.580;5.010;2024-01-16T10:39:23;20.08;;;10.20;;
24713;SDS011;12820;51.580;5.010;2024-01-16T10:44:52;14.23;;;11.05;;
24713;SDS011;12820;51.580;5.010;2024-01-16T10:49:54;17.45;;;11.07;;
24713;SDS011;12820;51.580;5.010;2024-01-16T10:54:57;20.25;;;10.98;;
24713;SDS011;12820;51.580;5.010;2024-01-16T11:00:06;15.82;;;10.80;;
24713;SDS011;12820;51.580;5.010;2024-01-16T11:05:14;16.05;;;10.75;;
24713;SDS011;12820;51.580;5.010;2024-01-16T11:10:21;18.63;;;10.18;;
24713;SDS011;12820;51.580;5.010;2024-01-16T11:15:29;22.05;;;11.43;;
24713;SDS011;12820;51.580;5.010;2024-01-16T11:20:33;16.00;;;10.02;;
24713;SDS011;12820;51.580;5.010;2024-01-16T11:25:57;14.60;;;10.00;;
24713;SDS011;12820;51.580;5.010;2024-01-16T11:30:59;13.23;;;10.27;;
24713;SDS011;12820;51.580;5.010;2024-01-16T11:36:43;16.67;;;9.85;;
24713;SDS011;12820;51.580;5.010;2024-01-16T11:41:49;15.77;;;10.60;;
24713;SDS011;12820;51.580;5.010;2024-01-16T11:47:02;15.93;;;9.85;;
24713;SDS011;12820;51.580;5.010;2024-01-16T11:52:05;17.42;;;9.43;;
24713;SDS011;12820;51.580;5.010;2024-01-16T11:57:26;19.65;;;9.60;;
24713;SDS011;12820;51.580;5.010;2024-01-16T12:02:45;14.70;;;9.25;;
24713;SDS011;12820;51.580;5.010;2024-01-16T12:07:50;17.08;;;10.32;;
24713;SDS011;12820;51.580;5.010;2024-01-16T12:12:58;17.20;;;9.40;;
24713;SDS011;12820;51.580;5.010;2024-01-16T12:18:06;13.52;;;8.93;;
24713;SDS011;12820;51.580;5.010;2024-01-16T12:23:20;15.27;;;9.02;;
24713;SDS011;12820;51.580;5.010;2024-01-16T12:28:25;16.10;;;8.65;;
24713;SDS011;12820;51.580;5.010;2024-01-16T12:33:30;14.93;;;8.50;;
24713;SDS011;12820;51.580;5.010;2024-01-16T12:38:33;10.00;;;7.72;;
24713;SDS011;12820;51.580;5.010;2024-01-16T12:43:35;15.40;;;8.15;;
24713;SDS011;12820;51.580;5.010;2024-01-16T12:48:39;12.98;;;7.15;;
24713;SDS011;12820;51.580;5.010;2024-01-16T12:53:53;12.65;;;7.90;;
24713;SDS011;12820;51.580;5.010;2024-01-16T12:58:56;15.00;;;7.35;;
24713;SDS011;12820;51.580;5.010;2024-01-16T13:04:03;13.85;;;7.55;;
24713;SDS011;12820;51.580;5.010;2024-01-16T13:09:11;12.43;;;7.43;;
24713;SDS011;12820;51.580;5.010;2024-01-16T13:14:21;12.90;;;6.50;;
24713;SDS011;12820;51.580;5.010;2024-01-16T13:19:24;13.05;;;7.13;;
24713;SDS011;12820;51.580;5.010;2024-01-16T13:24:27;12.25;;;6.80;;
24713;SDS011;12820;51.580;5.010;2024-01-16T13:29:30;11.93;;;7.10;;
24713;SDS011;12820;51.580;5.010;2024-01-16T13:34:38;11.90;;;6.75;;
24713;SDS011;12820;51.580;5.010;2024-01-16T13:39:40;13.52;;;7.32;;
24713;SDS011;12820;51.580;5.010;2024-01-16T13:44:43;10.50;;;6.25;;
24713;SDS011;12820;51.580;5.010;2024-01-16T13:49:45;10.07;;;6.35;;
24713;SDS011;12820;51.580;5.010;2024-01-16T13:54:48;12.43;;;6.53;;
24713;SDS011;12820;51.580;5.010;2024-01-16T13:59:50;10.68;;;6.00;;
24713;SDS011;12820;51.580;5.010;2024-01-16T14:04:53;11.75;;;6.10;;
24713;SDS011;12820;51.580;5.010;2024-01-16T14:09:57;11.88;;;6.35;;
24713;SDS011;12820;51.580;5.010;2024-01-16T14:14:59;19.75;;;6.45;;
24713;SDS011;12820;51.580;5.010;2024-01-16T14:20:02;12.65;;;6.72;;
24713;SDS011;12820;51.580;5.010;2024-01-16T14:25:07;13.68;;;6.47;;
24713;SDS011;12820;51.580;5.010;2024-01-16T14:30:14;15.82;;;6.88;;
24713;SDS011;12820;51.580;5.010;2024-01-16T14:35:17;13.20;;;6.70;;
24713;SDS011;12820;51.580;5.010;2024-01-16T14:40:19;12.23;;;6.47;;
24713;SDS011;12820;51.580;5.010;2024-01-16T14:45:27;16.15;;;6.15;;
24713;SDS011;12820;51.580;5.010;2024-01-16T14:50:30;12.20;;;6.43;;
24713;SDS011;12820;51.580;5.010;2024-01-16T14:55:32;14.65;;;7.30;;
24713;SDS011;12820;51.580;5.010;2024-01-16T15:00:35;11.23;;;7.05;;
24713;SDS011;12820;51.580;5.010;2024-01-16T15:05:37;12.43;;;7.35;;
24713;SDS011;12820;51.580;5.010;2024-01-16T15:10:40;15.05;;;7.47;;
24713;SDS011;12820;51.580;5.010;2024-01-16T15:15:42;16.73;;;8.23;;
24713;SDS011;12820;51.580;5.010;2024-01-16T15:20:45;13.93;;;8.10;;
24713;SDS011;12820;51.580;5.010;2024-01-16T15:25:48;18.92;;;8.63;;
24713;SDS011;12820;51.580;5.010;2024-01-16T15:30:51;16.75;;;8.70;;
24713;SDS011;12820;51.580;5.010;2024-01-16T15:35:58;15.20;;;8.40;;
24713;SDS011;12820;51.580;5.010;2024-01-16T15:41:00;13.68;;;8.43;;
24713;SDS011;12820;51.580;5.010;2024-01-16T15:46:02;17.65;;;9.20;;
24713;SDS011;12820;51.580;5.010;2024-01-16T15:51:04;13.50;;;8.35;;
24713;SDS011;12820;51.580;5.010;2024-01-16T15:56:11;15.82;;;9.30;;
24713;SDS011;12820;51.580;5.010;2024-01-16T16:01:14;20.98;;;9.70;;
24713;SDS011;12820;51.580;5.010;2024-01-16T16:06:16;15.85;;;9.48;;
24713;SDS011;12820;51.580;5.010;2024-01-16T16:11:18;16.42;;;9.02;;
24713;SDS011;12820;51.580;5.010;2024-01-16T16:16:20;19.02;;;9.35;;
24713;SDS011;12820;51.580;5.010;2024-01-16T16:21:23;15.40;;;9.90;;
24713;SDS011;12820;51.580;5.010;2024-01-16T16:26:29;22.30;;;10.75;;
24713;SDS011;12820;51.580;5.010;2024-01-16T16:31:32;17.75;;;10.80;;
24713;SDS011;12820;51.580;5.010;2024-01-16T16:36:35;15.70;;;10.18;;
24713;SDS011;12820;51.580;5.010;2024-01-16T16:41:39;16.77;;;10.60;;
24713;SDS011;12820;51.580;5.010;2024-01-16T16:46:43;19.45;;;10.68;;
24713;SDS011;12820;51.580;5.010;2024-01-16T16:51:45;19.88;;;10.27;;
24713;SDS011;12820;51.580;5.010;2024-01-16T16:56:49;21.98;;;11.60;;
24713;SDS011;12820;51.580;5.010;2024-01-16T17:01:56;18.30;;;11.10;;
24713;SDS011;12820;51.580;5.010;2024-01-16T17:06:58;21.17;;;10.30;;
24713;SDS011;12820;51.580;5.010;2024-01-16T17:12:01;19.60;;;11.27;;
24713;SDS011;12820;51.580;5.010;2024-01-16T17:17:03;24.55;;;11.85;;
24713;SDS011;12820;51.580;5.010;2024-01-16T17:22:07;18.63;;;11.70;;
24713;SDS011;12820;51.580;5.010;2024-01-16T17:27:10;18.23;;;11.55;;
24713;SDS011;12820;51.580;5.010;2024-01-16T17:32:12;19.75;;;11.07;;
24713;SDS011;12820;51.580;5.010;2024-01-16T17:37:14;20.60;;;11.18;;
24713;SDS011;12820;51.580;5.010;2024-01-16T17:42:17;18.77;;;12.38;;
24713;SDS011;12820;51.580;5.010;2024-01-16T17:47:19;17.83;;;11.80;;
24713;SDS011;12820;51.580;5.010;2024-01-16T17:52:23;26.35;;;12.68;;
24713;SDS011;12820;51.580;5.010;2024-01-16T17:57:26;18.13;;;11.00;;
24713;SDS011;12820;51.580;5.010;2024-01-16T18:02:29;20.08;;;11.52;;
24713;SDS011;12820;51.580;5.010;2024-01-16T18:07:31;19.45;;;12.10;;
24713;SDS011;12820;51.580;5.010;2024-01-16T18:12:35;17.90;;;11.77;;
24713;SDS011;12820;51.580;5.010;2024-01-16T18:17:49;18.98;;;12.70;;
24713;SDS011;12820;51.580;5.010;2024-01-16T18:22:52;20.73;;;12.73;;
24713;SDS011;12820;51.580;5.010;2024-01-16T18:27:57;18.33;;;12.45;;
24713;SDS011;12820;51.580;5.010;2024-01-16T18:33:01;17.75;;;11.65;;
24713;SDS011;12820;51.580;5.010;2024-01-16T18:38:04;20.90;;;12.55;;
24713;SDS011;12820;51.580;5.010;2024-01-16T18:43:09;18.75;;;12.43;;
24713;SDS011;12820;51.580;5.010;2024-01-16T18:48:11;24.15;;;14.85;;
24713;SDS011;12820;51.580;5.010;2024-01-16T18:53:16;27.23;;;13.00;;
24713;SDS011;12820;51.580;5.010;2024-01-16T18:58:19;23.20;;;13.95;;
24713;SDS011;12820;51.580;5.010;2024-01-16T19:03:22;23.48;;;12.90;;
24713;SDS011;12820;51.580;5.010;2024-01-16T19:08:27;20.30;;;12.73;;
24713;SDS011;12820;51.580;5.010;2024-01-16T19:13:29;24.77;;;11.95;;
24713;SDS011;12820;51.580;5.010;2024-01-16T19:18:33;22.33;;;12.45;;
24713;SDS011;12820;51.580;5.010;2024-01-16T19:23:38;18.65;;;12.70;;
24713;SDS011;12820;51.580;5.010;2024-01-16T19:28:41;28.67;;;17.52;;
24713;SDS011;12820;51.580;5.010;2024-01-16T19:33:43;22.40;;;12.88;;
24713;SDS011;12820;51.580;5.010;2024-01-16T19:38:45;23.48;;;13.75;;
24713;SDS011;12820;51.580;5.010;2024-01-16T19:43:49;24.60;;;13.85;;
24713;SDS011;12820;51.580;5.010;2024-01-16T19:48:51;21.77;;;13.90;;
24713;SDS011;12820;51.580;5.010;2024-01-16T19:53:54;20.27;;;14.32;;
24713;SDS011;12820;51.580;5.010;2024-01-16T19:58:57;26.20;;;16.83;;
24713;SDS011;12820;51.580;5.010;2024-01-16T20:04:00;21.52;;;13.80;;
24713;SDS011;12820;51.580;5.010;2024-01-16T20:09:02;29.35;;;14.90;;
24713;SDS011;12820;51.580;5.010;2024-01-16T20:14:06;23.20;;;14.05;;
24713;SDS011;12820;51.580;5.010;2024-01-16T20:19:11;21.75;;;14.43;;
24713;SDS011;12820;51.580;5.010;2024-01-16T20:24:16;24.35;;;16.23;;
24713;SDS011;12820;51.580;5.010;2024-01-16T20:29:20;25.70;;;15.70;;
24713;SDS011;12820;51.580;5.010;2024-01-16T20:34:22;29.98;;;16.05;;
24713;SDS011;12820;51.580;5.010;2024-01-16T20:39:25;33.35;;;21.50;;
24713;SDS011;12820;51.580;5.010;2024-01-16T20:44:27;26.70;;;13.65;;
24713;SDS011;12820;51.580;5.010;2024-01-16T20:49:34;23.85;;;14.20;;
24713;SDS011;12820;51.580;5.010;2024-01-16T20:54:39;22.83;;;15.45;;
24713;SDS011;12820;51.580;5.010;2024-01-16T20:59:42;24.08;;;15.73;;
24713;SDS011;12820;51.580;5.010;2024-01-16T21:04:45;25.77;;;16.00;;
24713;SDS011;12820;51.580;5.010;2024-01-16T21:09:48;30.00;;;16.40;;
24713;SDS011;12820;51.580;5.010;2024-01-16T21:14:51;27.08;;;15.68;;
24713;SDS011;12820;51.580;5.010;2024-01-16T21:19:54;26.55;;;16.52;;
24713;SDS011;12820;51.580;5.010;2024-01-16T21:24:56;25.95;;;16.08;;
24713;SDS011;12820;51.580;5.010;2024-01-16T21:30:00;26.08;;;17.08;;
24713;SDS011;12820;51.580;5.010;2024-01-16T21:35:03;27.17;;;17.27;;
24713;SDS011;12820;51.580;5.010;2024-01-16T21:40:08;27.60;;;19.48;;
24713;SDS011;12820;51.580;5.010;2024-01-16T21:45:11;31.63;;;18.38;;
24713;SDS011;12820;51.580;5.010;2024-01-16T21:50:13;28.38;;;17.73;;
24713;SDS011;12820;51.580;5.010;2024-01-16T21:55:21;30.95;;;18.60;;
24713;SDS011;12820;51.580;5.010;2024-01-16T22:00:23;33.50;;;20.73;;
24713;SDS011;12820;51.580;5.010;2024-01-16T22:05:26;32.67;;;19.77;;
24713;SDS011;12820;51.580;5.010;2024-01-16T22:10:28;32.55;;;19.75;;
24713;SDS011;12820;51.580;5.010;2024-01-16T22:15:31;29.73;;;19.38;;
24713;SDS011;12820;51.580;5.010;2024-01-16T22:20:34;28.08;;;19.25;;
24713;SDS011;12820;51.580;5.010;2024-01-16T22:25:37;28.52;;;19.50;;
24713;SDS011;12820;51.580;5.010;2024-01-16T22:30:39;26.40;;;18.35;;
24713;SDS011;12820;51.580;5.010;2024-01-16T22:35:41;33.85;;;20.10;;
24713;SDS011;12820;51.580;5.010;2024-01-16T22:40:43;31.45;;;20.30;;
24713;SDS011;12820;51.580;5.010;2024-01-16T22:45:46;27.92;;;19.70;;
24713;SDS011;12820;51.580;5.010;2024-01-16T22:50:50;30.90;;;19.45;;
24713;SDS011;12820;51.580;5.010;2024-01-16T22:55:53;33.78;;;20.33;;
24713;SDS011;12820;51.580;5.010;2024-01-16T23:00:55;33.05;;;19.80;;
24713;SDS011;12820;51.580;5.010;2024-01-16T23:05:57;29.42;;;19.30;;
24713;SDS011;12820;51.580;5.010;2024-01-16T23:11:02;31.27;;;19.38;;
24713;SDS011;12820;51.580;5.010;2024-01-16T23:16:05;33.85;;;20.55;;
24713;SDS011;12820;51.580;5.010;2024-01-16T23:21:12;28.88;;;20.23;;
24713;SDS011;12820;51.580;5.010;2024-01-16T23:26:15;29.48;;;19.35;;
24713;SDS011;12820;51.580;5.010;2024-01-16T23:31:17;28.60;;;19.10;;
24713;SDS011;12820;51.580;5.010;2024-01-16T23:36:19;34.20;;;20.83;;
24713;SDS011;12820;51.580;5.010;2024-01-16T23:41:21;27.80;;;19.50;;
24713;SDS011;12820;51.580;5.010;2024-01-16T23:46:24;29.67;;;19.58;;
24713;SDS011;12820;51.580;5.010;2024-01-16T23:51:27;29.52;;;18.55;;
24713;SDS011;12820;51.580;5.010;2024-01-16T23:56:29;29.50;;;18.67;;
